createdAt,value
2022-11-23T00:00:48.336Z,5.97
2022-11-23T00:03:16.863Z,6.00
2022-11-23T00:05:44.694Z,5.96
2022-11-23T00:08:12.458Z,5.94
2022-11-23T00:10:40.197Z,5.83
2022-11-23T00:13:09.431Z,5.89
2022-11-23T00:15:37.229Z,5.83
2022-11-23T00:18:05.073Z,5.81
2022-11-23T00:20:32.866Z,5.77
2022-11-23T00:23:00.651Z,5.94
2022-11-23T00:25:28.388Z,5.99
2022-11-23T00:27:56.126Z,6.02
2022-11-23T00:30:25.304Z,6.14
2022-11-23T00:32:52.981Z,6.13
2022-11-23T00:35:20.801Z,6.17
2022-11-23T00:37:48.500Z,6.12
2022-11-23T00:40:17.213Z,6.14
2022-11-23T00:42:44.972Z,6.07
2022-11-23T00:45:12.717Z,6.07
2022-11-23T00:47:41.731Z,6.03
2022-11-23T00:50:10.325Z,6.03
2022-11-23T00:52:38.078Z,6.01
2022-11-23T00:55:06.665Z,5.99
2022-11-23T00:57:34.424Z,6.00
2022-11-23T01:00:02.265Z,5.88
2022-11-23T01:02:30.027Z,5.87
2022-11-23T01:04:59.109Z,5.77
2022-11-23T01:07:26.849Z,5.74
2022-11-23T01:09:54.682Z,5.68
2022-11-23T01:12:22.388Z,5.57
2022-11-23T01:14:50.153Z,5.50
2022-11-23T01:17:17.889Z,5.43
2022-11-23T01:19:45.703Z,5.34
2022-11-23T01:22:14.798Z,5.27
2022-11-23T01:24:42.540Z,5.13
2022-11-23T01:27:10.255Z,5.09
2022-11-23T01:29:37.969Z,4.93
2022-11-23T01:32:05.894Z,4.93
2022-11-23T01:34:33.889Z,4.81
2022-11-23T01:37:01.629Z,4.71
2022-11-23T01:39:30.996Z,4.65
2022-11-23T01:41:58.910Z,4.55
2022-11-23T01:44:29.852Z,4.51
2022-11-23T01:46:59.986Z,4.39
2022-11-23T01:49:31.274Z,4.40
2022-11-23T01:52:03.870Z,4.27
2022-11-23T01:54:37.687Z,4.36
2022-11-23T01:57:10.159Z,4.38
2022-11-23T01:59:38.650Z,4.37
2022-11-23T02:02:07.383Z,4.49
2022-11-23T02:04:40.086Z,4.30
2022-11-23T02:07:08.255Z,4.32
2022-11-23T02:09:38.297Z,4.26
2022-11-23T02:12:11.663Z,4.22
2022-11-23T02:14:39.862Z,4.28
2022-11-23T02:17:07.689Z,4.25
2022-11-23T02:19:47.642Z,4.25
2022-11-23T02:22:25.136Z,4.18
2022-11-23T02:24:56.316Z,4.11
2022-11-23T02:27:26.213Z,4.17
2022-11-23T02:29:56.565Z,4.07
2022-11-23T02:32:25.742Z,4.01
2022-11-23T02:34:53.448Z,3.96
2022-11-23T02:37:21.242Z,3.94
2022-11-23T02:39:52.237Z,3.89
2022-11-23T02:42:20.037Z,3.79
2022-11-23T02:44:56.974Z,3.85
2022-11-23T02:47:24.884Z,3.75
2022-11-23T02:49:52.660Z,3.67
2022-11-23T02:52:20.614Z,3.66
2022-11-23T02:54:48.434Z,3.69
2022-11-23T02:57:16.392Z,3.84
2022-11-23T02:59:44.197Z,3.80
2022-11-23T03:02:13.320Z,3.77
2022-11-23T03:04:41.121Z,3.76
2022-11-23T03:07:08.899Z,3.85
2022-11-23T03:09:36.604Z,3.76
2022-11-23T03:12:04.521Z,3.75
2022-11-23T03:14:32.284Z,3.66
2022-11-23T03:17:00.264Z,3.75
2022-11-23T03:19:29.509Z,3.68
2022-11-23T03:21:57.394Z,3.77
2022-11-23T03:24:25.249Z,3.81
2022-11-23T03:26:53.246Z,3.83
2022-11-23T03:29:21.011Z,3.82
2022-11-23T03:31:48.692Z,3.82
2022-11-23T03:34:16.394Z,3.82
2022-11-23T03:36:45.543Z,3.74
2022-11-23T03:39:13.622Z,3.70
2022-11-23T03:41:41.504Z,3.73
2022-11-23T03:44:09.226Z,3.49
2022-11-23T03:46:36.890Z,3.47
2022-11-23T03:49:04.768Z,3.40
2022-11-23T03:51:32.540Z,3.27
2022-11-23T03:54:01.666Z,3.18
2022-11-23T03:56:29.401Z,3.19
2022-11-23T03:58:57.218Z,3.11
2022-11-23T04:01:25.023Z,3.09
2022-11-23T04:03:53.155Z,3.21
2022-11-23T04:06:21.021Z,3.14
2022-11-23T04:08:48.730Z,3.13
2022-11-23T04:11:17.884Z,3.11
2022-11-23T04:13:45.691Z,3.10
2022-11-23T04:16:13.436Z,3.17
2022-11-23T04:18:41.658Z,3.21
2022-11-23T04:21:09.456Z,3.20
2022-11-23T04:23:37.204Z,3.11
2022-11-23T04:26:05.088Z,3.06
2022-11-23T04:28:34.229Z,3.14
2022-11-23T04:31:01.943Z,3.12
2022-11-23T04:33:31.671Z,3.00
2022-11-23T04:35:59.504Z,3.05
2022-11-23T04:38:27.406Z,2.95
2022-11-23T04:40:55.270Z,2.93
2022-11-23T04:43:23.019Z,2.91
2022-11-23T04:45:52.156Z,2.86
2022-11-23T04:48:19.935Z,2.88
2022-11-23T04:50:49.136Z,2.86
2022-11-23T04:53:18.687Z,2.81
2022-11-23T04:55:47.666Z,2.86
2022-11-23T04:58:15.500Z,2.62
2022-11-23T05:00:43.394Z,2.76
2022-11-23T05:03:12.546Z,2.74
2022-11-23T05:05:40.980Z,2.76
2022-11-23T05:08:09.504Z,2.77
2022-11-23T05:10:50.878Z,2.71
2022-11-23T05:13:18.609Z,2.68
2022-11-23T05:15:46.384Z,2.65
2022-11-23T05:18:15.692Z,2.61
2022-11-23T05:20:43.382Z,2.49
2022-11-23T05:23:11.341Z,2.25
2022-11-23T05:25:39.632Z,2.35
2022-11-23T05:28:30.191Z,2.33
2022-11-23T05:30:55.152Z,2.33
2022-11-23T05:33:24.279Z,2.39
2022-11-23T05:35:51.967Z,2.41
2022-11-23T05:38:19.668Z,2.37
2022-11-23T05:40:47.428Z,2.48
2022-11-23T05:43:15.261Z,2.35
2022-11-23T05:45:42.951Z,2.32
2022-11-23T05:48:11.001Z,2.32
2022-11-23T05:50:40.079Z,2.25
2022-11-23T05:53:07.820Z,2.30
2022-11-23T05:55:35.533Z,2.29
2022-11-23T05:58:03.800Z,2.22
2022-11-23T06:00:31.656Z,2.22
2022-11-23T06:03:01.461Z,2.18
2022-11-23T06:05:29.607Z,2.25
2022-11-23T06:07:58.772Z,2.12
2022-11-23T06:10:26.463Z,2.26
2022-11-23T06:12:54.274Z,2.29
2022-11-23T06:15:22.049Z,2.12
2022-11-23T06:17:49.771Z,2.14
2022-11-23T06:20:17.702Z,2.26
2022-11-23T06:22:45.472Z,2.24
2022-11-23T06:25:14.640Z,2.24
2022-11-23T06:27:42.766Z,2.25
2022-11-23T06:30:11.541Z,2.28
2022-11-23T06:32:39.542Z,2.14
2022-11-23T06:35:07.700Z,2.12
2022-11-23T06:37:35.372Z,2.03
2022-11-23T06:40:03.131Z,2.03
2022-11-23T06:42:38.825Z,2.10
2022-11-23T06:45:08.869Z,2.14
2022-11-23T06:47:36.755Z,2.18
2022-11-23T06:50:05.550Z,2.17
2022-11-23T06:52:33.406Z,2.24
2022-11-23T06:55:01.058Z,2.29
2022-11-23T06:57:28.830Z,2.27
2022-11-23T06:59:57.892Z,2.29
2022-11-23T07:02:25.684Z,2.21
2022-11-23T07:04:53.390Z,2.27
2022-11-23T07:07:21.198Z,2.36
2022-11-23T07:09:49.083Z,2.39
2022-11-23T07:12:16.791Z,2.44
2022-11-23T07:14:44.493Z,2.44
2022-11-23T07:17:17.263Z,2.54
2022-11-23T07:19:45.427Z,2.43
2022-11-23T07:22:13.173Z,2.35
2022-11-23T07:24:46.400Z,2.33
2022-11-23T07:27:14.687Z,2.38
2022-11-23T07:29:42.378Z,2.56
2022-11-23T07:32:10.139Z,2.70
2022-11-23T07:34:39.191Z,2.61
2022-11-23T07:37:06.932Z,2.60
2022-11-23T07:39:56.413Z,2.74
2022-11-23T07:42:33.610Z,2.94
2022-11-23T07:45:04.132Z,3.06
2022-11-23T07:47:32.089Z,3.07
2022-11-23T07:50:01.183Z,3.17
2022-11-23T07:52:28.930Z,3.22
2022-11-23T07:54:56.843Z,3.25
2022-11-23T07:57:24.629Z,3.35
2022-11-23T07:59:52.289Z,3.35
2022-11-23T08:02:20.067Z,3.43
2022-11-23T08:04:48.229Z,3.48
2022-11-23T08:07:17.359Z,3.53
2022-11-23T08:09:45.069Z,3.60
2022-11-23T08:12:12.786Z,3.65
2022-11-23T08:14:40.482Z,3.72
2022-11-23T08:17:08.679Z,3.74
2022-11-23T08:19:36.362Z,3.77
2022-11-23T08:22:04.124Z,3.77
2022-11-23T08:24:33.671Z,3.88
2022-11-23T08:27:01.676Z,3.90
2022-11-23T08:29:31.252Z,3.99
2022-11-23T08:31:58.942Z,4.03
2022-11-23T08:34:26.915Z,4.05
2022-11-23T08:36:54.679Z,4.10
2022-11-23T08:39:22.495Z,4.06
2022-11-23T08:41:51.676Z,4.05
2022-11-23T08:44:19.439Z,3.93
2022-11-23T08:46:48.264Z,3.99
2022-11-23T08:49:15.986Z,3.93
2022-11-23T08:51:49.691Z,4.05
2022-11-23T08:54:17.809Z,4.05
2022-11-23T08:56:45.613Z,3.97
2022-11-23T08:59:14.707Z,4.01
2022-11-23T09:01:42.428Z,4.06
2022-11-23T09:04:10.259Z,3.98
2022-11-23T09:06:38.287Z,4.03
2022-11-23T09:09:06.203Z,4.10
2022-11-23T09:11:33.963Z,4.11
2022-11-23T09:14:01.706Z,4.18
2022-11-23T09:16:33.883Z,4.68
2022-11-23T09:19:02.353Z,4.43
2022-11-23T09:21:33.400Z,4.48
2022-11-23T09:24:01.084Z,4.46
2022-11-23T09:26:30.478Z,4.52
2022-11-23T09:28:58.208Z,4.49
2022-11-23T09:31:28.840Z,4.61
2022-11-23T09:33:58.042Z,4.76
2022-11-23T09:36:26.200Z,4.86
2022-11-23T09:38:57.054Z,4.83
2022-11-23T09:41:52.624Z,4.83
2022-11-23T09:44:25.518Z,4.80
2022-11-23T09:47:04.441Z,4.86
2022-11-23T09:49:44.598Z,4.85
2022-11-23T09:52:18.911Z,4.95
2022-11-23T09:54:49.637Z,5.02
2022-11-23T09:57:21.639Z,4.98
2022-11-23T09:59:54.901Z,4.94
2022-11-23T10:02:25.334Z,5.03
2022-11-23T10:04:54.875Z,5.11
2022-11-23T10:07:36.428Z,5.16
2022-11-23T10:10:14.802Z,5.34
2022-11-23T10:12:53.236Z,5.52
2022-11-23T10:15:26.577Z,5.62
2022-11-23T10:18:08.769Z,6.03
2022-11-23T10:20:50.579Z,5.84
2022-11-23T10:23:31.311Z,6.06
2022-11-23T10:26:00.224Z,6.25
2022-11-23T10:28:32.806Z,6.40
2022-11-23T10:31:08.384Z,6.62
2022-11-23T10:33:42.700Z,6.15
2022-11-23T10:36:13.617Z,6.04
2022-11-23T10:38:42.425Z,6.20
2022-11-23T10:41:12.348Z,6.26
2022-11-23T10:43:45.257Z,6.28
2022-11-23T10:46:31.869Z,6.31
2022-11-23T10:49:15.207Z,6.22
2022-11-23T10:51:51.035Z,6.21
2022-11-23T10:54:23.378Z,6.27
2022-11-23T10:56:53.074Z,6.30
2022-11-23T10:59:29.517Z,6.25
2022-11-23T11:02:03.218Z,6.55
2022-11-23T11:04:31.536Z,6.41
2022-11-23T11:07:20.655Z,6.31
2022-11-23T11:09:52.943Z,6.68
2022-11-23T11:12:21.056Z,6.77
2022-11-23T11:15:11.670Z,6.69
2022-11-23T11:17:41.434Z,6.63
2022-11-23T11:20:33.770Z,6.23
2022-11-23T11:23:05.241Z,6.03
2022-11-23T11:25:36.809Z,6.01
2022-11-23T11:28:06.624Z,6.07
2022-11-23T11:30:45.795Z,6.12
2022-11-23T11:33:19.149Z,6.09
2022-11-23T11:35:51.432Z,6.03
2022-11-23T11:38:27.514Z,5.95
2022-11-23T11:40:57.090Z,5.88
2022-11-23T11:43:37.858Z,5.85
2022-11-23T11:49:04.668Z,5.90
2022-11-23T11:51:35.472Z,5.95
2022-11-23T11:54:12.594Z,6.00
2022-11-23T11:56:44.260Z,5.89
2022-11-23T11:59:17.592Z,6.04
2022-11-23T12:01:54.233Z,6.43
2022-11-23T12:04:27.557Z,6.54
2022-11-23T12:07:04.864Z,6.45
2022-11-23T12:09:39.844Z,6.36
2022-11-23T12:12:14.164Z,6.58
2022-11-23T12:14:41.976Z,6.57
2022-11-23T12:17:32.759Z,6.59
2022-11-23T12:20:12.556Z,6.33
2022-11-23T12:22:52.965Z,6.23
2022-11-23T12:25:33.379Z,6.28
2022-11-23T12:28:17.504Z,6.39
2022-11-23T12:30:56.477Z,6.41
2022-11-23T12:36:44.913Z,6.34
2022-11-23T12:39:28.174Z,6.29
2022-11-23T12:42:04.219Z,6.28
2022-11-23T12:44:53.992Z,6.31
2022-11-23T12:47:35.044Z,6.31
2022-11-23T12:50:14.774Z,6.46
2022-11-23T12:52:57.007Z,6.41
2022-11-23T12:55:25.886Z,6.40
2022-11-23T12:58:03.511Z,6.43
2022-11-23T13:00:35.666Z,6.47
2022-11-23T13:03:55.259Z,6.40
2022-11-23T13:06:36.590Z,6.56
2022-11-23T13:09:35.184Z,6.77
2022-11-23T13:12:18.611Z,6.96
2022-11-23T13:14:58.496Z,7.33
2022-11-23T13:17:35.336Z,7.78
2022-11-23T13:20:16.288Z,8.02
2022-11-23T13:22:46.078Z,8.15
2022-11-23T13:25:23.628Z,8.46
2022-11-23T13:28:03.356Z,8.74
2022-11-23T13:30:59.289Z,8.97
2022-11-23T13:33:37.897Z,9.22
2022-11-23T13:36:11.446Z,9.41
2022-11-23T13:38:45.000Z,9.41
2022-11-23T13:41:52.586Z,9.47
2022-11-23T13:44:24.275Z,9.53
2022-11-23T13:47:06.664Z,9.54
2022-11-23T13:49:42.462Z,9.40
2022-11-23T13:52:37.081Z,9.45
2022-11-23T13:55:20.113Z,9.43
2022-11-23T13:58:22.782Z,9.45
2022-11-23T14:00:52.322Z,9.39
2022-11-23T14:03:55.673Z,9.53
2022-11-23T14:06:43.246Z,9.38
2022-11-23T14:09:17.249Z,9.26
2022-11-23T14:11:57.286Z,9.25
2022-11-23T14:14:30.396Z,9.27
2022-11-23T14:17:23.860Z,9.19
2022-11-23T14:20:19.560Z,9.12
2022-11-23T14:23:01.414Z,9.47
2022-11-23T14:25:40.340Z,9.63
2022-11-23T14:28:21.494Z,9.65
2022-11-23T14:31:08.804Z,9.45
2022-11-23T14:33:45.693Z,9.36
2022-11-23T14:36:27.036Z,9.29
2022-11-23T14:39:20.887Z,9.23
2022-11-23T14:41:51.713Z,9.13
2022-11-23T14:44:24.512Z,9.09
2022-11-23T14:47:02.288Z,8.92
2022-11-23T14:49:30.332Z,8.67
2022-11-23T14:52:00.710Z,8.46
2022-11-23T14:54:30.204Z,8.46
2022-11-23T14:57:01.672Z,8.38
2022-11-23T14:59:33.478Z,8.20
2022-11-23T15:02:03.612Z,7.99
2022-11-23T15:04:35.104Z,8.04
2022-11-23T15:07:11.547Z,7.91
2022-11-23T15:09:50.956Z,7.89
2022-11-23T15:12:23.601Z,7.80
2022-11-23T15:14:51.942Z,7.84
2022-11-23T15:17:21.707Z,7.69
2022-11-23T15:19:57.245Z,7.68
2022-11-23T15:22:27.060Z,7.70
2022-11-23T15:24:55.593Z,7.60
2022-11-23T15:27:28.594Z,7.56
2022-11-23T15:29:57.668Z,7.52
2022-11-23T15:32:31.438Z,7.54
2022-11-23T15:35:02.824Z,7.56
2022-11-23T15:37:32.408Z,7.53
2022-11-23T15:40:01.066Z,7.53
2022-11-23T15:42:29.844Z,7.53
2022-11-23T15:44:57.580Z,7.50
2022-11-23T15:47:28.285Z,7.44
2022-11-23T15:50:01.417Z,7.41
2022-11-23T15:52:35.465Z,7.36
2022-11-23T15:55:09.217Z,7.44
2022-11-23T15:57:39.811Z,7.47
2022-11-23T16:00:10.467Z,7.50
2022-11-23T16:02:38.357Z,7.52
2022-11-23T16:05:14.390Z,7.49
2022-11-23T16:07:54.832Z,7.48
2022-11-23T16:10:25.948Z,7.44
2022-11-23T16:12:55.261Z,7.47
2022-11-23T16:15:41.980Z,7.36
2022-11-23T16:18:22.766Z,7.36
2022-11-23T16:20:53.253Z,7.20
2022-11-23T16:23:24.601Z,7.43
2022-11-23T16:25:58.183Z,6.99
2022-11-23T16:28:30.609Z,6.90
2022-11-23T16:30:59.231Z,6.84
2022-11-23T16:33:27.379Z,6.79
2022-11-23T16:35:55.174Z,6.75
2022-11-23T16:38:25.347Z,6.57
2022-11-23T16:40:53.225Z,6.34
2022-11-23T16:43:20.999Z,6.48
2022-11-23T16:45:51.686Z,6.41
2022-11-23T16:48:43.660Z,6.38
2022-11-23T16:51:14.435Z,6.40
2022-11-23T16:56:33.581Z,6.32
2022-11-23T16:59:01.369Z,6.35
2022-11-23T17:01:31.436Z,6.26
2022-11-23T17:03:59.299Z,6.36
2022-11-23T17:06:27.264Z,6.38
2022-11-23T17:09:04.726Z,6.35
2022-11-23T17:11:38.373Z,6.33
2022-11-23T17:14:07.171Z,6.30
2022-11-23T17:16:35.182Z,6.36
2022-11-23T17:19:02.998Z,6.39
2022-11-23T17:21:30.700Z,6.48
2022-11-23T17:23:59.813Z,6.56
2022-11-23T17:26:32.242Z,6.55
2022-11-23T17:29:02.502Z,6.55
2022-11-23T17:31:30.541Z,6.71
2022-11-23T17:33:58.719Z,6.77
2022-11-23T17:36:27.338Z,6.85
2022-11-23T17:38:55.439Z,6.78
2022-11-23T17:41:24.572Z,6.83
2022-11-23T17:43:52.261Z,6.84
2022-11-23T17:46:23.813Z,6.67
2022-11-23T17:48:56.269Z,6.80
2022-11-23T17:51:24.696Z,6.80
2022-11-23T17:53:52.566Z,6.85
2022-11-23T17:56:22.115Z,6.87
2022-11-23T17:58:52.354Z,6.83
2022-11-23T18:01:21.615Z,6.83
2022-11-23T18:03:49.660Z,6.82
2022-11-23T18:06:19.488Z,6.81
2022-11-23T18:08:48.610Z,6.79
2022-11-23T18:11:17.244Z,6.76
2022-11-23T18:13:45.077Z,6.73
2022-11-23T18:16:14.454Z,6.54
2022-11-23T18:18:42.261Z,6.66
2022-11-23T18:21:10.895Z,6.68
2022-11-23T18:23:38.811Z,7.09
2022-11-23T18:26:14.778Z,6.69
2022-11-23T18:28:42.650Z,6.64
2022-11-23T18:31:10.547Z,6.61
2022-11-23T18:33:39.794Z,6.50
2022-11-23T18:36:08.336Z,6.66
2022-11-23T18:38:36.257Z,7.06
2022-11-23T18:41:04.245Z,6.92
2022-11-23T18:43:32.143Z,6.56
2022-11-23T18:46:00.029Z,6.98
2022-11-23T18:48:27.852Z,6.62
2022-11-23T18:50:56.898Z,6.63
2022-11-23T18:53:24.646Z,6.74
2022-11-23T18:55:56.150Z,6.82
2022-11-23T18:58:26.824Z,7.09
2022-11-23T19:00:54.566Z,7.25
2022-11-23T19:03:22.261Z,7.09
2022-11-23T19:05:50.236Z,6.88
2022-11-23T19:08:19.349Z,7.42
2022-11-23T19:10:47.175Z,7.07
2022-11-23T19:13:14.942Z,6.92
2022-11-23T19:15:42.742Z,7.37
2022-11-23T19:18:10.599Z,7.00
2022-11-23T19:20:38.430Z,6.90
2022-11-23T19:23:06.216Z,7.00
2022-11-23T19:25:35.263Z,7.46
2022-11-23T19:28:02.975Z,7.60
2022-11-23T19:30:30.743Z,7.57
2022-11-23T19:32:59.679Z,7.02
2022-11-23T19:35:27.385Z,7.03
2022-11-23T19:37:55.110Z,7.20
2022-11-23T19:40:23.011Z,7.23
2022-11-23T19:42:52.057Z,7.17
2022-11-23T19:45:19.807Z,7.17
2022-11-23T19:47:47.567Z,7.19
2022-11-23T19:50:15.399Z,7.19
2022-11-23T19:53:10.762Z,7.51
2022-11-23T19:55:30.964Z,7.49
2022-11-23T19:58:00.052Z,7.68
2022-11-23T20:00:27.752Z,7.69
2022-11-23T20:02:59.391Z,7.66
2022-11-23T20:05:27.310Z,7.43
2022-11-23T20:07:55.180Z,6.59
2022-11-23T20:10:22.898Z,6.96
2022-11-23T20:12:50.640Z,6.94
2022-11-23T20:15:19.786Z,6.90
2022-11-23T20:17:48.767Z,6.83
2022-11-23T20:20:17.252Z,6.91
2022-11-23T20:22:45.542Z,6.95
2022-11-23T20:25:13.271Z,6.76
2022-11-23T20:27:41.229Z,7.17
2022-11-23T20:30:09.667Z,7.22
2022-11-23T20:32:38.868Z,7.22
2022-11-23T20:35:07.405Z,7.21
2022-11-23T20:37:35.187Z,7.22
2022-11-23T20:40:03.017Z,7.25
2022-11-23T20:42:30.763Z,7.27
2022-11-23T20:44:58.513Z,7.31
2022-11-23T20:47:27.983Z,7.44
2022-11-23T20:49:57.138Z,7.46
2022-11-23T20:52:24.950Z,7.59
2022-11-23T20:54:52.865Z,7.39
2022-11-23T20:57:21.908Z,7.25
2022-11-23T20:59:50.192Z,7.10
2022-11-23T21:02:18.216Z,7.12
2022-11-23T21:04:46.629Z,7.04
2022-11-23T21:07:15.792Z,7.01
2022-11-23T21:09:43.547Z,7.03
2022-11-23T21:12:28.889Z,6.97
2022-11-23T21:14:56.717Z,6.92
2022-11-23T21:17:24.507Z,7.01
2022-11-23T21:19:52.181Z,7.00
2022-11-23T21:22:21.234Z,6.93
2022-11-23T21:24:49.004Z,6.85
2022-11-23T21:27:17.207Z,6.87
2022-11-23T21:29:45.153Z,6.68
2022-11-23T21:32:14.631Z,6.51
2022-11-23T21:34:42.465Z,6.44
2022-11-23T21:37:12.516Z,6.41
2022-11-23T21:39:43.784Z,6.27
2022-11-23T21:42:13.347Z,6.30
2022-11-23T21:44:41.135Z,6.42
2022-11-23T21:47:08.903Z,6.42
2022-11-23T21:49:36.673Z,6.44
2022-11-23T21:52:04.651Z,6.64
2022-11-23T21:54:32.560Z,6.46
2022-11-23T21:57:02.086Z,6.40
2022-11-23T21:59:29.855Z,6.48
2022-11-23T22:01:58.595Z,6.43
2022-11-23T22:04:26.578Z,6.52
2022-11-23T22:06:54.262Z,6.38
2022-11-23T22:09:21.999Z,6.55
2022-11-23T22:11:49.694Z,6.58
2022-11-23T22:14:19.687Z,6.91
2022-11-23T22:16:49.974Z,7.01
2022-11-23T22:19:18.888Z,6.75
2022-11-23T22:21:47.118Z,6.64
2022-11-23T22:24:16.527Z,6.28
2022-11-23T22:26:45.030Z,6.46
2022-11-23T22:29:13.109Z,6.47
2022-11-23T22:31:43.611Z,6.38
2022-11-23T22:34:13.511Z,6.38
2022-11-23T22:36:41.618Z,6.23
2022-11-23T22:39:09.965Z,6.42
2022-11-23T22:41:38.455Z,6.51
2022-11-23T22:44:08.057Z,6.37
2022-11-23T22:46:36.472Z,6.46
2022-11-23T22:49:05.956Z,6.38
2022-11-23T22:51:34.001Z,6.42
2022-11-23T22:54:02.508Z,6.45
2022-11-23T22:56:31.520Z,6.40
2022-11-23T22:58:59.367Z,6.37
2022-11-23T23:01:29.637Z,6.32
2022-11-23T23:03:58.667Z,6.43
2022-11-23T23:06:29.431Z,6.27
2022-11-23T23:08:58.828Z,6.35
2022-11-23T23:11:28.791Z,7.41
2022-11-23T23:13:57.201Z,6.36
2022-11-23T23:16:25.651Z,6.23
2022-11-23T23:18:56.431Z,6.11
2022-11-23T23:21:25.143Z,5.96
2022-11-23T23:23:55.994Z,5.91
2022-11-23T23:26:27.224Z,6.24
2022-11-23T23:28:56.220Z,5.61
2022-11-23T23:31:25.127Z,5.72
2022-11-23T23:33:54.466Z,5.67
2022-11-23T23:36:23.496Z,5.64
2022-11-23T23:38:52.016Z,5.67
2022-11-23T23:41:21.437Z,5.62
2022-11-23T23:43:49.283Z,5.69
2022-11-23T23:46:17.411Z,5.71
2022-11-23T23:48:45.427Z,5.67
2022-11-23T23:51:15.343Z,5.63
2022-11-23T23:53:43.997Z,5.68
2022-11-23T23:56:14.655Z,5.66
2022-11-23T23:58:44.047Z,5.82
